Time;durP1;ratioP1;P1;durP2;ratioP2;P2;SDS_P1;SDS_P2;PMS_P1;PMS_P2;Temp;Humidity;BMP_temperature;BMP_pressure;BME280_temperature;BME280_humidity;BME280_pressure;Samples;Min_cycle;Max_cycle;Signal;HPM_P1;HPM_P2
2022/01/03 00:01:17;;;;;;;3.38;0.65;;;20.30;58.40;;;;;;4995601;28;20045;-68
2022/01/03 00:03:42;;;;;;;2.95;0.70;;;20.30;58.50;;;;;;4995964;28;20122;-68
2022/01/03 00:06:08;;;;;;;2.17;0.63;;;20.30;58.40;;;;;;4995888;28;20133;-68
2022/01/03 00:08:34;;;;;;;1.85;0.60;;;20.30;58.30;;;;;;4993561;28;20576;-69
2022/01/03 00:10:59;;;;;;;2.85;0.60;;;20.30;58.30;;;;;;4993339;28;20104;-68
2022/01/03 00:13:25;;;;;;;3.20;1.30;;;20.30;58.30;;;;;;4994588;28;20055;-68
2022/01/03 00:15:52;;;;;;;7.55;0.88;;;20.30;58.20;;;;;;4992771;28;20455;-68
2022/01/03 00:18:18;;;;;;;3.65;0.70;;;20.30;58.20;;;;;;4994641;28;20053;-67
2022/01/03 00:20:49;;;;;;;1.42;0.57;;;20.30;58.20;;;;;;4995477;28;20125;-68
2022/01/03 00:23:14;;;;;;;2.03;0.50;;;20.30;58.20;;;;;;4977581;28;20451;-68
2022/01/03 00:25:42;;;;;;;3.55;0.80;;;20.30;58.10;;;;;;4995465;28;20126;-69
2022/01/03 00:28:14;;;;;;;3.13;0.70;;;20.20;58.00;;;;;;4995791;28;20104;-68
2022/01/03 00:30:40;;;;;;;3.42;0.85;;;20.20;57.90;;;;;;4994150;28;20133;-68
2022/01/03 00:33:06;;;;;;;2.72;0.65;;;20.20;58.00;;;;;;4993381;28;20121;-68
2022/01/03 00:35:37;;;;;;;3.78;0.80;;;20.20;58.00;;;;;;4994309;28;20486;-68
2022/01/03 00:38:03;;;;;;;1.88;0.57;;;20.20;58.00;;;;;;4993339;28;20050;-68
2022/01/03 00:40:29;;;;;;;3.85;0.85;;;20.20;58.00;;;;;;4994207;28;20042;-69
2022/01/03 00:42:54;;;;;;;2.67;0.80;;;20.20;58.00;;;;;;4994988;28;20046;-69
2022/01/03 00:45:20;;;;;;;3.72;0.90;;;20.10;57.90;;;;;;4993227;28;20042;-69
2022/01/03 00:47:47;;;;;;;3.08;0.70;;;20.20;57.90;;;;;;4993604;28;20116;-68
2022/01/03 00:50:15;;;;;;;2.15;0.60;;;20.20;57.90;;;;;;4993882;28;20078;-69
2022/01/03 00:52:41;;;;;;;;;;;20.20;57.90;;;;;;4993396;28;20108;-68
2022/01/03 00:55:07;;;;;;;2.88;0.63;;;20.10;57.70;;;;;;4994880;28;20337;-69
2022/01/03 00:57:58;;;;;;;3.22;0.77;;;20.10;57.90;;;;;;4993030;28;20142;-68
2022/01/03 01:00:23;;;;;;;4.50;0.80;;;20.10;57.80;;;;;;4993800;28;20069;-68
2022/01/03 01:03:12;;;;;;;3.78;0.70;;;20.10;57.80;;;;;;4993275;28;20436;-68
2022/01/03 01:05:45;;;;;;;4.28;1.33;;;20.10;58.40;;;;;;4993835;28;20043;-69
2022/01/03 01:08:11;;;;;;;5.85;1.20;;;20.10;57.70;;;;;;4994739;28;20058;-68
2022/01/03 01:10:38;;;;;;;3.80;0.88;;;20.00;57.70;;;;;;4993327;28;20047;-68
2022/01/03 01:13:04;;;;;;;6.63;1.17;;;20.10;57.70;;;;;;4991459;28;20453;-68
2022/01/03 01:15:30;;;;;;;4.97;0.90;;;20.10;57.60;;;;;;4993306;28;20567;-68
2022/01/03 01:17:56;;;;;;;4.10;0.90;;;20.10;57.60;;;;;;4994027;28;20046;-69
2022/01/03 01:20:23;;;;;;;9.48;1.35;;;20.00;57.40;;;;;;4993558;28;20073;-68
2022/01/03 01:22:49;;;;;;;4.47;0.88;;;20.00;57.40;;;;;;4994264;28;20055;-68
2022/01/03 01:27:50;;;;;;;4.05;0.95;;;20.00;57.40;;;;;;4991414;28;20440;-68
2022/01/03 01:30:20;;;;;;;5.70;1.23;;;20.00;57.40;;;;;;4994630;28;20132;-69
2022/01/03 01:32:48;;;;;;;3.25;0.93;;;20.00;57.40;;;;;;5008239;28;20092;-69
2022/01/03 01:35:14;;;;;;;5.60;1.30;;;20.00;57.40;;;;;;4977097;28;20058;-68
2022/01/03 01:37:40;;;;;;;3.78;0.90;;;20.00;57.40;;;;;;4994346;28;20049;-69
2022/01/03 01:40:06;;;;;;;6.07;1.05;;;20.00;57.40;;;;;;4991693;28;20074;-69
2022/01/03 01:42:32;;;;;;;4.50;1.00;;;20.00;58.00;;;;;;4994293;28;20046;-68
2022/01/03 01:44:58;;;;;;;4.53;1.30;;;20.00;57.30;;;;;;4976695;28;20378;-69
2022/01/03 01:47:23;;;;;;;6.18;1.15;;;20.00;57.20;;;;;;4993483;28;20136;-68
2022/01/03 01:49:49;;;;;;;2.67;0.80;;;20.00;57.20;;;;;;4976489;28;20505;-68
2022/01/03 01:52:20;;;;;;;4.18;1.20;;;19.90;57.20;;;;;;4992571;28;20038;-68
2022/01/03 01:54:53;;;;;;;5.63;1.30;;;19.90;57.10;;;;;;4992758;28;20121;-68
2022/01/03 01:57:19;;;;;;;6.60;1.02;;;19.90;57.00;;;;;;4992574;28;20117;-68
2022/01/03 02:00:12;;;;;;;6.28;1.45;;;19.90;57.00;;;;;;4992420;28;20118;-68
2022/01/03 02:02:43;;;;;;;5.30;0.90;;;19.90;57.00;;;;;;4992032;28;20072;-68
2022/01/03 02:05:30;;;;;;;4.78;1.20;;;19.90;57.00;;;;;;4993913;28;20042;-68
2022/01/03 02:08:03;;;;;;;5.50;0.98;;;19.90;57.00;;;;;;4991386;28;20106;-68
2022/01/03 02:10:37;;;;;;;7.20;1.35;;;19.90;57.00;;;;;;4992254;28;20057;-68
2022/01/03 02:13:03;;;;;;;5.32;1.20;;;19.90;57.00;;;;;;4992307;28;20042;-68
2022/01/03 02:15:31;;;;;;;7.00;1.15;;;19.90;57.00;;;;;;4992049;28;20050;-68
2022/01/03 02:17:56;;;;;;;6.35;1.02;;;19.90;57.00;;;;;;4993205;28;20517;-68
2022/01/03 02:20:26;;;;;;;4.72;0.90;;;19.90;56.90;;;;;;4992591;28;20050;-68
2022/01/03 02:22:51;;;;;;;6.25;1.20;;;19.80;56.70;;;;;;4991408;28;20046;-68
2022/01/03 02:25:18;;;;;;;6.40;1.55;;;19.80;56.70;;;;;;4992625;28;20046;-68
2022/01/03 02:27:44;;;;;;;6.75;1.17;;;19.80;56.70;;;;;;4992915;28;20050;-68
2022/01/03 02:30:14;;;;;;;4.93;0.90;;;19.80;56.70;;;;;;4991299;28;20498;-68
2022/01/03 02:32:40;;;;;;;5.38;1.15;;;19.80;56.70;;;;;;4993342;28;20406;-68
2022/01/03 02:35:06;;;;;;;3.83;0.98;;;19.80;56.80;;;;;;4993714;28;20042;-68
2022/01/03 02:37:32;;;;;;;8.60;1.58;;;19.80;56.70;;;;;;4992475;28;20050;-68
2022/01/03 02:39:57;;;;;;;4.10;0.85;;;19.80;56.70;;;;;;4992663;28;20120;-67
2022/01/03 02:42:26;;;;;;;5.00;0.90;;;19.80;56.70;;;;;;4993529;28;20038;-67
2022/01/03 02:44:59;;;;;;;5.53;1.10;;;19.80;56.60;;;;;;4990859;28;20137;-68
2022/01/03 02:47:25;;;;;;;6.05;1.40;;;19.80;56.60;;;;;;4993466;28;20522;-68
2022/01/03 02:49:50;;;;;;;4.25;1.08;;;19.80;56.60;;;;;;4992899;28;20125;-68
2022/01/03 02:52:16;;;;;;;6.05;1.33;;;19.80;56.60;;;;;;4992440;28;20101;-68
2022/01/03 02:54:41;;;;;;;4.75;1.20;;;19.80;56.60;;;;;;4993164;28;20038;-67
2022/01/03 02:57:07;;;;;;;8.63;1.30;;;19.80;56.40;;;;;;4992629;28;20113;-67
2022/01/03 02:59:32;;;;;;;6.57;1.15;;;19.90;56.40;;;;;;4975887;28;20042;-67
2022/01/03 03:01:58;;;;;;;7.65;1.33;;;19.90;56.40;;;;;;4978346;28;20414;-68
2022/01/03 03:04:23;;;;;;;6.88;1.13;;;19.90;56.40;;;;;;4955580;28;20046;-68
2022/01/03 03:06:50;;;;;;;6.13;1.00;;;19.90;56.30;;;;;;4971376;28;20125;-68
2022/01/03 03:09:16;;;;;;;6.85;1.40;;;19.90;56.20;;;;;;4971986;28;20050;-68
2022/01/03 03:11:41;;;;;;;8.18;1.20;;;19.90;56.10;;;;;;4972743;28;20371;-68
2022/01/03 03:14:07;;;;;;;3.92;0.90;;;19.90;56.10;;;;;;4973228;28;20502;-67
2022/01/03 03:16:33;;;;;;;5.75;1.20;;;19.90;56.10;;;;;;4973491;28;20042;-67
2022/01/03 03:18:59;;;;;;;7.45;1.30;;;19.90;56.10;;;;;;4955299;28;20130;-68
2022/01/03 03:21:29;;;;;;;4.88;1.30;;;19.90;56.00;;;;;;4973625;28;20130;-68
2022/01/03 03:23:54;;;;;;;5.03;0.82;;;19.90;55.90;;;;;;4971978;28;20046;-69
2022/01/03 03:26:20;;;;;;;7.15;1.15;;;20.00;55.90;;;;;;4972618;28;20057;-68
2022/01/03 03:28:45;;;;;;;4.65;0.82;;;20.00;56.60;;;;;;4972095;28;20121;-69
2022/01/03 03:31:11;;;;;;;7.70;1.20;;;20.00;55.90;;;;;;4973603;28;20057;-68
2022/01/03 03:33:36;;;;;;;5.25;1.00;;;20.00;55.80;;;;;;4955429;28;20058;-69
2022/01/03 03:36:02;;;;;;;5.45;1.17;;;20.00;55.80;;;;;;4973775;28;20158;-68
2022/01/03 03:38:28;;;;;;;6.47;1.20;;;20.00;55.70;;;;;;4977287;28;20046;-69
2022/01/03 03:40:57;;;;;;;6.80;1.20;;;20.00;55.70;;;;;;4975687;28;20038;-68
2022/01/03 03:43:23;;;;;;;5.57;1.00;;;20.00;55.70;;;;;;4976913;28;20102;-68
2022/01/03 03:45:49;;;;;;;6.57;0.82;;;20.00;55.70;;;;;;4975323;28;20035;-69
2022/01/03 03:48:15;;;;;;;4.97;1.10;;;20.10;55.80;;;;;;4974904;28;20047;-68
2022/01/03 03:50:41;;;;;;;9.07;1.25;;;20.10;55.80;;;;;;4976675;28;20046;-68
2022/01/03 03:53:06;;;;;;;6.00;1.10;;;20.10;55.70;;;;;;4976912;28;20065;-68
2022/01/03 03:55:32;;;;;;;6.80;1.05;;;20.10;55.70;;;;;;4974788;28;20126;-68
2022/01/03 03:57:58;;;;;;;6.03;1.00;;;20.10;55.70;;;;;;4976483;28;20395;-68
2022/01/03 04:00:24;;;;;;;6.93;1.25;;;20.10;55.70;;;;;;4974623;28;20047;-68
2022/01/03 04:02:49;;;;;;;5.90;1.40;;;20.10;55.60;;;;;;4975025;28;20043;-68
2022/01/03 04:05:15;;;;;;;5.82;1.20;;;20.10;55.60;;;;;;4976652;28;20051;-69
2022/01/03 04:07:40;;;;;;;6.93;1.23;;;20.20;55.60;;;;;;4975493;28;20061;-68
2022/01/03 04:10:07;;;;;;;4.68;1.30;;;20.10;55.50;;;;;;4976340;28;20047;-67
2022/01/03 04:12:32;;;;;;;7.80;1.40;;;20.20;55.60;;;;;;4975471;28;20089;-68
2022/01/03 04:14:58;;;;;;;9.52;1.50;;;20.20;55.60;;;;;;4974179;28;20082;-68
2022/01/03 04:17:23;;;;;;;9.55;1.20;;;20.20;55.50;;;;;;4976447;28;20055;-69
2022/01/03 04:19:49;;;;;;;9.63;1.48;;;20.20;55.50;;;;;;4974680;28;20066;-69
2022/01/03 04:22:15;;;;;;;4.82;1.33;;;20.20;55.60;;;;;;4975527;28;20081;-68
2022/01/03 04:24:40;;;;;;;6.85;1.00;;;20.20;55.60;;;;;;4976379;28;20047;-69
2022/01/03 04:27:06;;;;;;;5.10;1.08;;;20.20;55.50;;;;;;4975745;28;20054;-69
2022/01/03 04:29:31;;;;;;;6.72;1.10;;;20.20;55.50;;;;;;4975342;28;20049;-69
2022/01/03 04:31:57;;;;;;;6.55;1.20;;;20.20;55.50;;;;;;4975755;28;20050;-68
2022/01/03 04:34:22;;;;;;;6.47;1.13;;;20.20;55.60;;;;;;4976129;28;20166;-68
2022/01/03 04:36:48;;;;;;;6.85;1.38;;;20.30;55.60;;;;;;4973632;28;20046;-68
2022/01/03 04:39:13;;;;;;;6.85;1.15;;;20.20;55.50;;;;;;4975840;28;20043;-68
2022/01/03 04:41:39;;;;;;;5.30;1.00;;;20.30;55.60;;;;;;4974544;28;20042;-68
2022/01/03 04:44:05;;;;;;;6.38;1.50;;;20.30;55.50;;;;;;4973875;28;20043;-68
2022/01/03 04:46:34;;;;;;;6.57;1.30;;;20.30;55.60;;;;;;4974539;28;20374;-68
2022/01/03 04:49:00;;;;;;;4.53;1.17;;;20.30;55.60;;;;;;4974460;28;20126;-68
2022/01/03 04:51:25;;;;;;;5.57;1.10;;;20.30;55.50;;;;;;4975296;28;20126;-68
2022/01/03 04:53:51;;;;;;;5.45;0.90;;;20.30;55.50;;;;;;4975301;28;20035;-68
2022/01/03 04:56:17;;;;;;;6.72;1.65;;;20.30;55.50;;;;;;4974424;28;20109;-68
2022/01/03 04:58:43;;;;;;;5.07;1.00;;;20.30;55.40;;;;;;4974537;28;20057;-68
2022/01/03 05:01:09;;;;;;;6.82;1.55;;;20.30;55.40;;;;;;4975952;28;20047;-68
2022/01/03 05:03:34;;;;;;;8.32;1.17;;;20.30;55.40;;;;;;4999437;28;20042;-68
2022/01/03 05:06:01;;;;;;;6.60;1.23;;;20.30;55.40;;;;;;4996346;28;20046;-68
2022/01/03 05:08:28;;;;;;;9.02;1.83;;;20.30;55.30;;;;;;4994247;28;20058;-68
2022/01/03 05:10:53;;;;;;;7.72;1.42;;;20.30;55.30;;;;;;4992323;28;20046;-68
2022/01/03 05:13:19;;;;;;;5.60;1.10;;;20.30;55.30;;;;;;4993396;28;20125;-68
2022/01/03 05:15:44;;;;;;;7.05;1.60;;;20.30;55.30;;;;;;4994134;28;20046;-68
2022/01/03 05:18:10;;;;;;;5.00;1.20;;;20.30;55.30;;;;;;4993880;28;20049;-68
2022/01/03 05:20:35;;;;;;;6.70;1.10;;;20.40;55.40;;;;;;4994490;28;20048;-67
2022/01/03 05:23:01;;;;;;;7.00;1.55;;;20.40;55.30;;;;;;4994348;28;20050;-68
2022/01/03 05:25:26;;;;;;;6.43;1.35;;;20.40;55.30;;;;;;4992051;28;20097;-68
2022/01/03 05:27:53;;;;;;;4.95;1.00;;;20.40;55.30;;;;;;4994076;28;20567;-68
2022/01/03 05:30:19;;;;;;;7.25;1.65;;;20.40;55.30;;;;;;4994409;28;20181;-67
2022/01/03 05:32:44;;;;;;;6.82;1.20;;;20.40;55.30;;;;;;4992310;28;20133;-68
2022/01/03 05:35:10;;;;;;;6.65;1.33;;;20.40;55.30;;;;;;4994283;28;20494;-68
2022/01/03 05:37:35;;;;;;;8.45;1.40;;;20.40;55.30;;;;;;4994389;28;20501;-68
2022/01/03 05:40:01;;;;;;;8.55;1.55;;;20.40;55.20;;;;;;4991729;28;20046;-68
2022/01/03 05:42:26;;;;;;;8.60;1.38;;;20.40;55.10;;;;;;4994200;28;20057;-68
2022/01/03 05:44:52;;;;;;;6.55;1.30;;;20.40;55.10;;;;;;4992683;28;20043;-68
2022/01/03 05:47:17;;;;;;;7.45;1.40;;;20.40;55.10;;;;;;4993526;28;20053;-68
2022/01/03 05:49:43;;;;;;;8.52;1.33;;;20.40;55.10;;;;;;4992600;28;20038;-66
2022/01/03 05:52:09;;;;;;;7.80;1.38;;;20.40;55.00;;;;;;4993690;28;20061;-66
2022/01/03 05:54:34;;;;;;;6.78;1.17;;;20.40;55.10;;;;;;4991883;28;20042;-67
2022/01/03 05:57:00;;;;;;;5.97;1.27;;;20.40;55.10;;;;;;4992078;28;20133;-67
2022/01/03 05:59:26;;;;;;;6.45;1.15;;;20.40;55.00;;;;;;4992182;28;20046;-67
2022/01/03 06:01:52;;;;;;;6.10;1.08;;;20.40;55.00;;;;;;4992893;28;20133;-67
2022/01/03 06:04:23;;;;;;;9.38;1.52;;;20.40;55.00;;;;;;4993828;28;20039;-67
2022/01/03 06:06:58;;;;;;;6.55;1.35;;;20.40;55.00;;;;;;4993144;28;20101;-67
2022/01/03 06:09:23;;;;;;;7.32;1.60;;;20.40;55.00;;;;;;4992317;28;20053;-67
2022/01/03 06:11:50;;;;;;;8.30;1.40;;;20.50;55.10;;;;;;4993249;28;20042;-67
2022/01/03 06:14:17;;;;;;;7.35;1.63;;;20.50;55.10;;;;;;4992670;28;20097;-67
2022/01/03 06:16:47;;;;;;;6.85;1.27;;;20.50;55.00;;;;;;4993279;28;20585;-67
2022/01/03 06:19:12;;;;;;;8.73;2.22;;;20.40;55.00;;;;;;4992646;28;20042;-67
2022/01/03 06:21:41;;;;;;;6.82;1.48;;;20.50;55.00;;;;;;4991521;28;20406;-67
2022/01/03 06:24:10;;;;;;;;;;;20.50;55.00;;;;;;4993142;28;20046;-67
2022/01/03 06:26:41;;;;;;;8.45;1.50;;;20.40;55.00;;;;;;4991930;28;19918;-67
2022/01/03 06:29:07;;;;;;;9.40;1.70;;;20.40;55.00;;;;;;4991731;28;20042;-67
2022/01/03 06:31:32;;;;;;;8.95;2.08;;;20.50;55.00;;;;;;4992291;28;20141;-67
2022/01/03 06:33:58;;;;;;;9.68;1.40;;;20.50;55.60;;;;;;4993445;28;20038;-67
2022/01/03 06:36:24;;;;;;;7.45;1.30;;;20.50;55.00;;;;;;4992684;28;20054;-68
2022/01/03 06:38:49;;;;;;;6.32;1.60;;;20.50;55.00;;;;;;4992075;28;20096;-67
2022/01/03 06:41:15;;;;;;;5.03;1.20;;;20.50;55.00;;;;;;4993477;28;20096;-68
2022/01/03 06:43:40;;;;;;;7.40;1.50;;;20.50;55.00;;;;;;4992098;28;20042;-68
2022/01/03 06:46:06;;;;;;;5.35;1.48;;;20.50;55.00;;;;;;4992272;28;20042;-68
2022/01/03 06:48:31;;;;;;;5.97;1.50;;;20.50;54.90;;;;;;4993442;28;20121;-67
2022/01/03 06:50:57;;;;;;;5.32;1.20;;;20.50;54.90;;;;;;4992387;28;20482;-67
2022/01/03 06:53:22;;;;;;;7.32;1.33;;;20.50;55.00;;;;;;4993286;28;20129;-67
2022/01/03 06:55:48;;;;;;;6.68;1.10;;;20.60;55.00;;;;;;4993076;28;20053;-67
2022/01/03 06:58:13;;;;;;;5.50;1.40;;;20.60;55.00;;;;;;4992253;28;20383;-67
2022/01/03 07:00:39;;;;;;;7.13;1.52;;;20.60;54.90;;;;;;4992892;28;20505;-67
2022/01/03 07:03:04;;;;;;;8.50;1.85;;;20.60;55.00;;;;;;4992914;28;20042;-67
2022/01/03 07:05:30;;;;;;;8.82;1.42;;;20.60;54.90;;;;;;4992274;28;20082;-67
2022/01/03 07:07:55;;;;;;;5.35;1.58;;;20.60;54.90;;;;;;4992053;28;20141;-67
2022/01/03 07:10:21;;;;;;;6.75;1.27;;;20.60;54.90;;;;;;4991401;28;20402;-66
2022/01/03 07:12:51;;;;;;;4.55;1.00;;;20.60;54.90;;;;;;4995238;28;20049;-67
2022/01/03 07:20:46;;;;;;;6.22;1.45;;;20.60;54.90;;;;;;4993896;28;20070;-67
2022/01/03 07:23:12;;;;;;;6.00;1.50;;;20.60;54.90;;;;;;4995614;28;20053;-67
2022/01/03 07:25:38;;;;;;;10.48;2.10;;;20.70;54.90;;;;;;4993399;28;20050;-67
2022/01/03 07:28:03;;;;;;;9.90;1.58;;;20.60;54.80;;;;;;4994901;28;20062;-67
2022/01/03 07:30:29;;;;;;;6.18;1.45;;;20.70;54.80;;;;;;4978178;28;20048;-65
2022/01/03 07:32:54;;;;;;;8.20;1.42;;;20.70;54.80;;;;;;4994282;28;20043;-65
2022/01/03 07:35:20;;;;;;;8.20;1.30;;;20.70;54.80;;;;;;4994048;28;20479;-65
2022/01/03 07:37:45;;;;;;;8.20;1.30;;;20.70;54.80;;;;;;4993576;28;20050;-65
2022/01/03 07:40:11;;;;;;;6.53;1.35;;;20.70;54.80;;;;;;4994611;28;20042;-65
2022/01/03 07:42:37;;;;;;;7.82;1.73;;;20.70;54.80;;;;;;4994005;28;20050;-65
2022/01/03 07:45:03;;;;;;;7.88;1.77;;;20.70;54.80;;;;;;4995126;28;20046;-65
2022/01/03 07:47:28;;;;;;;8.23;1.75;;;20.70;54.80;;;;;;4993241;28;20109;-65
2022/01/03 07:49:54;;;;;;;8.88;1.67;;;20.70;54.80;;;;;;4994716;28;20051;-64
2022/01/03 07:52:19;;;;;;;7.30;2.05;;;20.70;54.80;;;;;;4995011;28;20053;-64
2022/01/03 07:54:45;;;;;;;9.63;2.22;;;20.70;54.80;;;;;;4994264;28;20082;-65
2022/01/03 07:57:11;;;;;;;9.15;2.30;;;20.70;54.80;;;;;;4996821;28;20046;-68
2022/01/03 07:59:37;;;;;;;9.20;2.08;;;20.70;54.80;;;;;;4995949;28;20573;-65
2022/01/03 08:02:02;;;;;;;9.75;2.10;;;20.70;54.90;;;;;;4994313;28;20046;-66
2022/01/03 08:04:28;;;;;;;12.13;1.98;;;20.80;55.10;;;;;;4994999;28;20042;-66
2022/01/03 08:06:53;;;;;;;10.82;2.20;;;20.80;55.10;;;;;;4958925;28;1017044;-65
2022/01/03 08:09:19;;;;;;;9.38;1.90;;;20.80;55.20;;;;;;4995484;28;20050;-65
2022/01/03 08:11:44;;;;;;;9.45;2.28;;;20.80;55.20;;;;;;4995426;28;20042;-65
2022/01/03 08:14:10;;;;;;;9.77;2.10;;;20.80;55.20;;;;;;4993529;28;20053;-65
2022/01/03 08:16:35;;;;;;;13.15;2.25;;;20.80;55.20;;;;;;4994482;28;20061;-65
2022/01/03 08:19:01;;;;;;;8.27;2.10;;;20.80;55.30;;;;;;4995636;28;20045;-65
2022/01/03 08:21:26;;;;;;;8.30;2.17;;;20.80;55.40;;;;;;4995040;28;20042;-64
2022/01/03 08:23:52;;;;;;;9.43;1.80;;;20.80;55.30;;;;;;4994354;28;20097;-65
2022/01/03 08:26:17;;;;;;;10.10;2.20;;;20.80;56.00;;;;;;4994188;28;20473;-67
2022/01/03 08:28:43;;;;;;;13.70;2.28;;;20.80;55.30;;;;;;4993242;28;20054;-67
2022/01/03 08:31:09;;;;;;;10.27;2.40;;;20.90;55.30;;;;;;4993351;28;20042;-67
2022/01/03 08:33:34;;;;;;;11.75;2.30;;;20.90;55.30;;;;;;5000722;28;20042;-66
2022/01/03 08:36:01;;;;;;;11.32;2.03;;;20.90;55.40;;;;;;5007621;28;20387;-66
2022/01/03 08:38:26;;;;;;;9.98;2.25;;;20.90;55.40;;;;;;4997475;28;20100;-67
2022/01/03 08:40:52;;;;;;;8.80;2.25;;;20.90;55.50;;;;;;5014555;28;20046;-67
2022/01/03 08:43:17;;;;;;;7.43;1.95;;;20.90;55.60;;;;;;5012716;28;20053;-67
2022/01/03 08:45:43;;;;;;;8.90;2.08;;;20.90;55.60;;;;;;5013124;28;20053;-68
2022/01/03 08:48:08;;;;;;;10.10;2.30;;;21.00;55.70;;;;;;5015097;28;20057;-67
2022/01/03 08:50:34;;;;;;;9.30;2.55;;;21.00;55.70;;;;;;5013905;28;20524;-69
2022/01/03 08:53:01;;;;;;;10.43;2.42;;;21.00;55.70;;;;;;5007218;28;20034;-67
2022/01/03 08:55:26;;;;;;;11.80;2.28;;;21.00;55.70;;;;;;5007458;28;20120;-67
2022/01/03 08:57:52;;;;;;;9.80;2.42;;;21.00;55.80;;;;;;5012030;28;20133;-69
2022/01/03 09:00:19;;;;;;;8.43;2.20;;;21.00;55.90;;;;;;5013244;28;20049;-68
2022/01/03 09:02:45;;;;;;;8.18;2.33;;;21.00;55.80;;;;;;5014191;28;20091;-68
2022/01/03 09:05:10;;;;;;;8.98;2.28;;;21.00;55.80;;;;;;5012342;28;20125;-68
2022/01/03 09:07:36;;;;;;;9.07;2.17;;;21.00;55.80;;;;;;5013157;28;20111;-68
2022/01/03 09:10:03;;;;;;;10.65;2.35;;;21.00;55.80;;;;;;5013174;28;20042;-68
2022/01/03 09:12:29;;;;;;;8.90;2.10;;;21.00;55.70;;;;;;5013179;28;20521;-67
2022/01/03 09:14:54;;;;;;;9.02;2.30;;;21.00;55.80;;;;;;5013979;28;20225;-68
2022/01/03 09:17:20;;;;;;;9.13;1.98;;;21.00;55.70;;;;;;5013473;28;20124;-67
2022/01/03 09:19:45;;;;;;;11.85;2.10;;;21.10;55.80;;;;;;5014043;28;20394;-68
2022/01/03 09:22:18;;;;;;;11.63;2.90;;;21.10;55.80;;;;;;5012679;28;20038;-68
2022/01/03 09:28:48;;;;;;;9.52;2.10;;;21.00;55.70;;;;;;5013203;28;20041;-67
2022/01/03 09:30:31;;;;;;;9.52;2.15;;;21.10;55.70;;;;;;5020472;28;20073;-67
2022/01/03 09:32:56;;;;;;;8.10;2.10;;;21.10;55.70;;;;;;5011588;28;20425;-67
2022/01/03 09:35:22;;;;;;;10.05;2.40;;;21.10;55.70;;;;;;5013176;28;20128;-64
2022/01/03 09:37:48;;;;;;;8.63;2.42;;;21.10;55.70;;;;;;5013692;28;20128;-68
2022/01/03 09:40:14;;;;;;;11.20;2.65;;;21.10;55.70;;;;;;5011769;28;20046;-64
2022/01/03 09:42:39;;;;;;;8.45;2.47;;;21.10;55.60;;;;;;5013872;28;20073;-70
2022/01/03 09:45:07;;;;;;;11.50;2.25;;;21.10;55.60;;;;;;5011445;28;20510;-69
2022/01/03 09:47:33;;;;;;;11.65;2.58;;;21.20;55.60;;;;;;5011049;28;20073;-70
2022/01/03 09:49:58;;;;;;;12.20;2.90;;;21.20;55.60;;;;;;5011696;28;20084;-65
2022/01/03 09:52:24;;;;;;;11.75;2.60;;;21.20;55.50;;;;;;5011876;28;20073;-66
2022/01/03 09:54:50;;;;;;;12.15;2.67;;;21.10;56.10;;;;;;5013406;28;20046;-65
2022/01/03 09:57:16;;;;;;;9.63;2.22;;;21.20;55.30;;;;;;5013629;28;20054;-67
2022/01/03 09:59:43;;;;;;;8.95;2.22;;;21.20;55.30;;;;;;5011102;28;20053;-66
2022/01/03 10:02:09;;;;;;;8.88;2.40;;;21.20;55.10;;;;;;5013448;28;20121;-67
2022/01/03 10:04:35;;;;;;;10.88;2.47;;;21.20;55.10;;;;;;5012265;28;20053;-67
2022/01/03 10:07:00;;;;;;;11.70;2.47;;;21.20;55.00;;;;;;5011260;28;20093;-67
2022/01/03 10:09:26;;;;;;;12.13;2.35;;;21.20;55.00;;;;;;4993755;28;20069;-67
2022/01/03 10:11:51;;;;;;;9.68;1.88;;;21.20;55.00;;;;;;4975312;28;20121;-67
2022/01/03 10:14:17;;;;;;;9.45;2.50;;;21.20;54.90;;;;;;4991798;28;20128;-66
2022/01/03 10:16:44;;;;;;;12.13;2.33;;;21.10;54.70;;;;;;4997937;28;20137;-67
2022/01/03 10:19:10;;;;;;;9.55;2.25;;;21.20;54.70;;;;;;4996926;28;20041;-65
2022/01/03 10:21:41;;;;;;;9.57;1.95;;;21.10;54.60;;;;;;4992989;28;20065;-68
2022/01/03 10:24:07;;;;;;;10.05;1.90;;;21.20;54.70;;;;;;4992187;28;20047;-69
2022/01/03 10:26:32;;;;;;;11.02;2.25;;;21.20;54.80;;;;;;4992383;28;20132;-67
2022/01/03 10:29:19;;;;;;;8.07;1.83;;;21.20;54.80;;;;;;4992553;28;20425;-67
2022/01/03 10:31:46;;;;;;;12.15;2.20;;;21.20;54.70;;;;;;4992280;28;20133;-68
2022/01/03 10:34:14;;;;;;;9.98;2.22;;;21.20;54.80;;;;;;4993621;28;20053;-67
2022/01/03 10:36:40;;;;;;;10.15;2.33;;;21.30;54.80;;;;;;4992751;28;20042;-70
2022/01/03 10:39:20;;;;;;;11.25;2.13;;;21.20;54.70;;;;;;4993782;28;20042;-68
2022/01/03 10:42:09;;;;;;;8.80;2.00;;;21.30;54.70;;;;;;4992362;28;20042;-68
2022/01/03 10:44:40;;;;;;;9.07;2.33;;;21.30;54.60;;;;;;4991899;28;20061;-68
2022/01/03 10:47:08;;;;;;;11.40;2.20;;;21.30;54.60;;;;;;4992019;28;20488;-68
2022/01/03 10:49:33;;;;;;;9.00;2.30;;;21.30;54.50;;;;;;4990900;28;20482;-69
2022/01/03 10:52:28;;;;;;;8.23;2.22;;;21.30;54.40;;;;;;4992975;28;20050;-68
2022/01/03 10:55:14;;;;;;;10.35;2.20;;;21.30;54.20;;;;;;4993209;28;20088;-68
2022/01/03 10:57:55;;;;;;;10.70;2.30;;;21.30;54.20;;;;;;4992599;28;20104;-68
2022/01/03 11:00:37;;;;;;;10.60;2.00;;;21.30;54.20;;;;;;4993162;28;20043;-68
2022/01/03 11:05:45;;;;;;;9.15;1.83;;;21.30;54.70;;;;;;4993107;28;20058;-68
2022/01/03 11:10:47;;;;;;;9.85;1.63;;;21.30;54.00;;;;;;4975129;28;20173;-68
2022/01/03 11:13:24;;;;;;;10.45;2.42;;;21.30;54.60;;;;;;4991962;28;20398;-67
2022/01/03 11:15:53;;;;;;;11.30;2.25;;;21.30;53.90;;;;;;4991834;28;20043;-68
2022/01/03 11:18:20;;;;;;;7.85;2.40;;;21.30;54.00;;;;;;4990952;28;20069;-68
2022/01/03 11:21:15;;;;;;;10.35;2.35;;;21.30;53.90;;;;;;4992723;28;20049;-67
2022/01/03 11:23:48;;;;;;;8.55;2.22;;;21.30;53.90;;;;;;4991671;28;20104;-68
2022/01/03 11:26:18;;;;;;;10.35;2.20;;;21.30;53.80;;;;;;4992802;28;20080;-68
2022/01/03 11:28:44;;;;;;;9.68;2.67;;;21.30;53.80;;;;;;4992513;28;20046;-68
2022/01/03 11:31:11;;;;;;;10.70;2.13;;;21.30;53.80;;;;;;4992151;28;20042;-68
2022/01/03 11:33:37;;;;;;;8.47;2.03;;;21.30;54.40;;;;;;4993009;28;20050;-68
2022/01/03 11:36:04;;;;;;;8.90;2.17;;;21.20;53.70;;;;;;4991132;28;20089;-68
2022/01/03 11:38:30;;;;;;;11.02;2.33;;;21.30;53.60;;;;;;4990882;28;20397;-68
2022/01/03 11:41:00;;;;;;;11.63;2.50;;;21.30;53.60;;;;;;4992672;28;20042;-68
2022/01/03 11:43:27;;;;;;;10.00;2.05;;;21.30;53.60;;;;;;4991745;28;20050;-68
2022/01/03 11:45:53;;;;;;;9.43;2.15;;;21.30;53.60;;;;;;4991812;28;20515;-68
2022/01/03 11:48:18;;;;;;;9.40;2.35;;;21.30;53.70;;;;;;4975632;28;20046;-68
2022/01/03 11:50:44;;;;;;;9.27;2.50;;;21.20;53.60;;;;;;4991299;28;20058;-68
2022/01/03 11:53:09;;;;;;;7.15;2.22;;;21.20;53.60;;;;;;4990820;28;20112;-68
2022/01/03 11:55:36;;;;;;;9.25;2.20;;;21.20;53.60;;;;;;4991694;28;20061;-68
2022/01/03 12:06:03;;;;;;;9.80;2.20;;;21.20;53.40;;;;;;4995081;28;20058;-68
2022/01/03 12:08:33;;;;;;;9.57;2.08;;;21.30;53.50;;;;;;4995931;28;20073;-68
2022/01/03 12:11:00;;;;;;;11.57;2.15;;;21.20;53.30;;;;;;4994236;28;20050;-68
2022/01/03 12:13:45;;;;;;;9.80;2.60;;;21.20;53.30;;;;;;4994279;28;20046;-68
2022/01/03 12:16:12;;;;;;;8.38;2.20;;;21.20;53.20;;;;;;4995852;28;20046;-69
2022/01/03 12:18:38;;;;;;;12.88;2.13;;;21.20;53.20;;;;;;4978788;28;20065;-68
2022/01/03 12:21:03;;;;;;;10.02;2.20;;;21.30;53.10;;;;;;4994834;28;20479;-66
2022/01/03 12:23:36;;;;;;;7.88;2.08;;;21.20;53.10;;;;;;4996053;28;20076;-67
2022/01/03 12:26:17;;;;;;;8.50;2.42;;;21.20;53.00;;;;;;4995129;28;20395;-68
2022/01/03 12:29:08;;;;;;;9.73;2.70;;;21.30;52.90;;;;;;4994754;28;20116;-67
2022/01/03 12:32:01;;;;;;;11.50;3.47;;;21.20;52.90;;;;;;4995573;28;20403;-67
2022/01/03 12:34:27;;;;;;;11.20;2.17;;;21.20;52.90;;;;;;4994660;28;20046;-67
2022/01/03 12:37:18;;;;;;;8.52;2.50;;;21.20;52.90;;;;;;4995199;28;20104;-67
2022/01/03 12:40:04;;;;;;;9.63;2.72;;;21.20;52.80;;;;;;4994198;28;20046;-67
2022/01/03 12:45:14;;;;;;;10.13;3.05;;;21.20;52.70;;;;;;4994202;28;20509;-68
2022/01/03 12:47:40;;;;;;;9.95;2.33;;;21.20;52.70;;;;;;4995308;28;20545;-67
2022/01/03 12:50:28;;;;;;;9.88;2.40;;;21.20;52.70;;;;;;4994622;28;20111;-68
2022/01/03 12:52:54;;;;;;;10.70;2.70;;;21.20;52.60;;;;;;4994201;28;20038;-68
2022/01/03 12:55:38;;;;;;;11.65;2.47;;;21.20;52.60;;;;;;4994370;28;20490;-68
2022/01/03 12:58:18;;;;;;;9.88;2.15;;;21.20;52.50;;;;;;4994874;28;20043;-67
2022/01/03 13:00:54;;;;;;;11.18;2.35;;;21.20;52.50;;;;;;4994589;28;20049;-67
2022/01/03 13:03:22;;;;;;;7.00;1.90;;;21.20;52.50;;;;;;4993022;28;20042;-67
2022/01/03 13:06:10;;;;;;;10.32;2.50;;;21.20;52.60;;;;;;4993253;28;20042;-67
2022/01/03 13:08:40;;;;;;;13.23;2.50;;;21.20;52.50;;;;;;4992642;28;20050;-67
2022/01/03 13:11:08;;;;;;;11.25;2.60;;;21.20;52.60;;;;;;4993610;28;20132;-67
2022/01/03 13:13:34;;;;;;;11.32;2.50;;;21.20;52.60;;;;;;4994696;28;20046;-68
2022/01/03 13:16:00;;;;;;;9.13;2.25;;;21.30;52.70;;;;;;4992756;28;20049;-68